Time;durP1;ratioP1;P1;durP2;ratioP2;P2;SDS_P1;SDS_P2;PMS_P1;PMS_P2;Temp;Humidity;BMP_temperature;BMP_pressure;BME280_temperature;BME280_humidity;BME280_pressure;Samples;Min_cycle;Max_cycle;Signal;HPM_P1;HPM_P2
2022/08/12 00:42:51;;;;;;;;;;;22.70;63.00;;;;;;6245792;23;651;-68
2022/08/12 00:45:16;;;;;;;;;;;22.70;63.10;;;;;;6218864;23;1030;-68
2022/08/12 00:47:41;;;;;;;;;;;22.70;63.10;;;;;;6218389;23;1216;-68
2022/08/12 00:50:08;;;;;;;;;;;22.70;63.10;;;;;;6193715;23;1533;-68
2022/08/12 00:52:34;;;;;;;;;;;22.70;63.10;;;;;;6218674;23;796;-68
2022/08/12 00:55:00;;;;;;;;;;;22.70;63.10;;;;;;6218865;23;876;-68
2022/08/12 00:57:27;;;;;;;;;;;22.70;63.10;;;;;;6218475;23;1897;-68
2022/08/12 00:59:56;;;;;;;;;;;22.70;63.10;;;;;;6245398;23;856;-69
2022/08/12 01:02:25;;;;;;;;;;;22.70;63.10;;;;;;6218874;23;978;-68
2022/08/12 01:13:07;;;;;;;;;;;22.70;63.20;;;;;;6222946;23;600;-68
2022/08/12 01:15:33;;;;;;;;;;;22.70;63.20;;;;;;6245116;23;797;-68
2022/08/12 01:17:58;;;;;;;;;;;22.70;63.20;;;;;;6245332;23;1944;-68
2022/08/12 01:20:26;;;;;;;;;;;22.70;63.20;;;;;;6218525;23;828;-68
2022/08/12 01:23:11;;;;;;;;;;;22.70;63.20;;;;;;6219039;23;678;-68
2022/08/12 01:25:36;;;;;;;;;;;22.70;63.20;;;;;;6245097;23;816;-68
2022/08/12 01:28:02;;;;;;;;;;;22.70;63.30;;;;;;6218567;23;1279;-68
2022/08/12 01:30:29;;;;;;;;;;;22.70;63.30;;;;;;6218747;23;820;-68
2022/08/12 01:32:55;;;;;;;;;;;22.70;63.30;;;;;;6218953;23;851;-68
2022/08/12 01:35:20;;;;;;;;;;;22.70;63.30;;;;;;6218540;23;892;-68
2022/08/12 01:38:01;;;;;;;;;;;22.70;63.30;;;;;;6218296;23;1893;-68
2022/08/12 01:40:27;;;;;;;;;;;22.70;63.40;;;;;;6245470;23;788;-68
2022/08/12 01:42:54;;;;;;;;;;;22.70;63.40;;;;;;6245596;23;832;-68
2022/08/12 01:45:23;;;;;;;;;;;22.70;63.40;;;;;;6245229;23;1164;-68
2022/08/12 01:48:00;;;;;;;;;;;22.70;63.40;;;;;;6245245;23;1199;-68
2022/08/12 01:50:44;;;;;;;;;;;22.70;63.40;;;;;;6245277;23;876;-68
2022/08/12 01:53:11;;;;;;;;;;;22.70;63.40;;;;;;6245447;23;825;-69
2022/08/12 01:55:41;;;;;;;;;;;22.70;63.40;;;;;;6218254;23;844;-68
2022/08/12 01:58:12;;;;;;;;;;;22.70;63.40;;;;;;6245082;23;1932;-68
2022/08/12 02:00:50;;;;;;;;;;;22.70;63.40;;;;;;6245283;23;808;-68
2022/08/12 02:03:16;;;;;;;;;;;22.70;63.50;;;;;;6221255;23;804;-68
2022/08/12 02:11:50;;;;;;;;;;;22.70;63.50;;;;;;6224697;23;640;-68
2022/08/12 02:14:30;;;;;;;;;;;22.70;63.60;;;;;;6247345;23;847;-68
2022/08/12 02:17:14;;;;;;;;;;;22.70;63.50;;;;;;6219923;23;1884;-68
2022/08/12 02:19:59;;;;;;;;;;;22.70;63.60;;;;;;6247254;23;780;-68
2022/08/12 02:22:37;;;;;;;;;;;22.70;63.60;;;;;;6246449;23;1121;-68
2022/08/12 02:25:16;;;;;;;;;;;22.70;63.60;;;;;;6247296;23;867;-68
2022/08/12 02:27:42;;;;;;;;;;;22.70;63.60;;;;;;6246709;23;1301;-68
2022/08/12 02:30:08;;;;;;;;;;;22.70;63.60;;;;;;6247086;23;805;-68
2022/08/12 02:32:35;;;;;;;;;;;22.70;63.60;;;;;;6247463;23;903;-68
2022/08/12 02:35:01;;;;;;;;;;;22.70;63.70;;;;;;6220309;23;831;-69
2022/08/12 02:37:26;;;;;;;;;;;22.70;63.70;;;;;;6246329;23;1932;-68
2022/08/12 02:39:52;;;;;;;;;;;22.70;63.70;;;;;;6220205;23;920;-68
2022/08/12 02:42:18;;;;;;;;;;;22.70;63.70;;;;;;6220286;23;1235;-68
2022/08/12 02:44:43;;;;;;;;;;;22.70;63.70;;;;;;6220039;23;994;-68
2022/08/12 02:47:09;;;;;;;;;;;22.70;63.70;;;;;;6219839;23;1195;-68
2022/08/12 02:49:35;;;;;;;;;;;22.70;63.70;;;;;;6220167;23;796;-68
2022/08/12 02:52:00;;;;;;;;;;;22.70;63.70;;;;;;6220106;23;1046;-68
2022/08/12 02:54:25;;;;;;;;;;;22.70;63.70;;;;;;6219972;23;1027;-68
2022/08/12 02:56:51;;;;;;;;;;;22.70;63.70;;;;;;6246495;23;1889;-68
2022/08/12 02:59:22;;;;;;;;;;;22.70;63.70;;;;;;6246570;23;1161;-68
2022/08/12 03:01:49;;;;;;;;;;;22.70;63.80;;;;;;6219934;23;1108;-68
2022/08/12 03:04:34;;;;;;;;;;;22.70;63.80;;;;;;6219856;23;792;-69
2022/08/12 03:07:18;;;;;;;;;;;22.70;63.80;;;;;;6219763;23;898;-69
2022/08/12 03:09:50;;;;;;;;;;;22.70;63.80;;;;;;6246536;23;848;-68
2022/08/12 03:12:16;;;;;;;;;;;22.70;63.80;;;;;;6220119;23;816;-68
2022/08/12 03:14:42;;;;;;;;;;;22.70;63.80;;;;;;6219875;23;848;-68
2022/08/12 03:17:10;;;;;;;;;;;22.70;63.80;;;;;;6218977;23;1905;-68
2022/08/12 03:19:38;;;;;;;;;;;22.70;63.80;;;;;;6246477;23;991;-68
2022/08/12 03:22:11;;;;;;;;;;;22.70;63.90;;;;;;6246724;23;780;-68
2022/08/12 03:24:37;;;;;;;;;;;22.70;63.90;;;;;;6221388;23;864;-68
2022/08/12 03:27:04;;;;;;;;;;;22.70;63.90;;;;;;6219488;23;958;-68
2022/08/12 03:29:29;;;;;;;;;;;22.70;64.00;;;;;;6219688;23;1275;-68
2022/08/12 03:31:58;;;;;;;;;;;22.70;64.00;;;;;;6219427;23;887;-69
2022/08/12 03:34:28;;;;;;;;;;;22.70;63.90;;;;;;6219808;23;864;-68
2022/08/12 03:36:53;;;;;;;;;;;22.70;64.00;;;;;;6220168;23;1960;-68
2022/08/12 03:39:26;;;;;;;;;;;22.70;64.00;;;;;;6219954;23;1235;-68
2022/08/12 03:41:58;;;;;;;;;;;22.70;64.00;;;;;;6246542;23;864;-68
2022/08/12 04:01:01;;;;;;;;;;;22.70;64.10;;;;;;6245965;23;874;-68
2022/08/12 04:06:11;;;;;;;;;;;22.70;64.10;;;;;;6223125;23;622;-69
2022/08/12 04:08:36;;;;;;;;;;;22.70;64.10;;;;;;6245959;23;1290;-69
2022/08/12 04:13:47;;;;;;;;;;;22.70;64.10;;;;;;6223531;23;620;-68
2022/08/12 04:16:13;;;;;;;;;;;22.70;64.10;;;;;;6245585;23;1940;-68
2022/08/12 04:18:39;;;;;;;;;;;22.70;64.20;;;;;;6245850;23;1189;-69
2022/08/12 04:21:09;;;;;;;;;;;22.70;64.20;;;;;;6219505;23;848;-68
2022/08/12 04:23:38;;;;;;;;;;;22.70;64.20;;;;;;6246063;23;839;-69
2022/08/12 04:26:04;;;;;;;;;;;22.70;64.20;;;;;;6245963;23;690;-68
2022/08/12 04:28:29;;;;;;;;;;;22.70;64.20;;;;;;6218615;23;1188;-68
2022/08/12 04:30:58;;;;;;;;;;;22.70;64.20;;;;;;6245715;23;1034;-68
2022/08/12 04:33:24;;;;;;;;;;;22.70;64.20;;;;;;6245877;23;822;-69
2022/08/12 04:35:49;;;;;;;;;;;22.70;64.20;;;;;;6245420;23;871;-68
2022/08/12 04:38:15;;;;;;;;;;;22.70;64.20;;;;;;6245586;23;1932;-68
2022/08/12 04:40:41;;;;;;;;;;;22.70;64.20;;;;;;6219038;23;800;-68
2022/08/12 04:43:08;;;;;;;;;;;22.70;64.30;;;;;;6245794;23;808;-68
2022/08/12 04:45:36;;;;;;;;;;;22.70;64.20;;;;;;6245110;23;887;-68
2022/08/12 04:48:01;;;;;;;;;;;22.70;64.30;;;;;;6219089;23;1342;-69
2022/08/12 04:50:27;;;;;;;;;;;22.70;64.30;;;;;;6245815;23;809;-68
2022/08/12 04:52:52;;;;;;;;;;;22.70;64.30;;;;;;6218874;23;888;-68
2022/08/12 04:55:18;;;;;;;;;;;22.70;64.30;;;;;;6218833;23;934;-68
2022/08/12 04:57:43;;;;;;;;;;;22.70;64.30;;;;;;6245163;23;1938;-69
2022/08/12 05:00:09;;;;;;;;;;;22.70;64.30;;;;;;6245608;23;792;-68
2022/08/12 05:02:35;;;;;;;;;;;22.70;63.00;;;;;;6245666;23;922;-68
2022/08/12 05:05:00;;;;;;;;;;;22.70;60.80;;;;;;6245614;23;872;-67
2022/08/12 05:07:26;;;;;;;;;;;22.70;60.50;;;;;;6245245;23;1275;-67
2022/08/12 05:09:51;;;;;;;;;;;22.70;61.40;;;;;;6246034;23;816;-68
2022/08/12 05:12:18;;;;;;;;;;;22.60;60.80;;;;;;6246072;23;829;-68
2022/08/12 05:14:44;;;;;;;;;;;22.60;60.90;;;;;;6245510;23;836;-67
2022/08/12 05:17:09;;;;;;;;;;;22.60;61.30;;;;;;6239694;23;1940;-69
2022/08/12 05:19:35;;;;;;;;;;;22.60;60.80;;;;;;6244801;23;994;-68
2022/08/12 05:22:00;;;;;;;;;;;22.60;60.50;;;;;;6245038;23;792;-69
2022/08/12 05:24:26;;;;;;;;;;;22.60;60.60;;;;;;6245428;23;789;-69
2022/08/12 05:26:51;;;;;;;;;;;22.60;60.60;;;;;;6218008;23;860;-69
2022/08/12 05:29:16;;;;;;;;;;;22.60;60.50;;;;;;6245044;23;1265;-69
2022/08/12 05:31:42;;;;;;;;;;;22.60;60.40;;;;;;6218790;23;840;-69
2022/08/12 05:34:10;;;;;;;;;;;22.60;60.70;;;;;;6218643;23;776;-69
2022/08/12 05:36:35;;;;;;;;;;;22.60;60.80;;;;;;6244952;23;1888;-68
2022/08/12 05:39:01;;;;;;;;;;;22.60;60.50;;;;;;6245327;23;1174;-69
2022/08/12 05:41:30;;;;;;;;;;;22.60;60.60;;;;;;6195471;23;784;-71
2022/08/12 05:43:56;;;;;;;;;;;22.60;60.50;;;;;;6247489;23;836;-69
2022/08/12 05:46:22;;;;;;;;;;;22.60;60.50;;;;;;6247187;23;776;-68
2022/08/12 05:48:53;;;;;;;;;;;22.60;60.60;;;;;;6219985;23;1259;-69
2022/08/12 05:51:19;;;;;;;;;;;22.60;60.60;;;;;;6221604;23;836;-68
2022/08/12 05:53:44;;;;;;;;;;;22.60;60.70;;;;;;6220330;23;998;-68
2022/08/12 05:56:19;;;;;;;;;;;22.60;60.70;;;;;;6247033;23;851;-68
2022/08/12 05:58:46;;;;;;;;;;;22.60;60.70;;;;;;6246975;23;1609;-68
2022/08/12 06:01:11;;;;;;;;;;;22.60;60.80;;;;;;6247386;23;827;-68
2022/08/12 06:03:37;;;;;;;;;;;22.60;60.50;;;;;;6247227;23;804;-68
2022/08/12 06:06:03;;;;;;;;;;;22.60;60.60;;;;;;6242843;23;781;-67
2022/08/12 06:08:28;;;;;;;;;;;22.60;60.80;;;;;;6246835;23;1195;-68
2022/08/12 06:10:55;;;;;;;;;;;22.60;60.80;;;;;;6246937;23;997;-68
2022/08/12 06:13:21;;;;;;;;;;;22.60;60.80;;;;;;6246987;23;823;-69
2022/08/12 06:15:48;;;;;;;;;;;22.60;60.70;;;;;;6246872;23;795;-69
2022/08/12 06:18:13;;;;;;;;;;;22.60;61.00;;;;;;6246174;23;1942;-67
2022/08/12 06:20:39;;;;;;;;;;;22.60;60.90;;;;;;6246966;23;820;-68
2022/08/12 06:23:05;;;;;;;;;;;22.60;60.60;;;;;;6247192;23;776;-68
2022/08/12 06:25:30;;;;;;;;;;;22.60;60.30;;;;;;6220269;23;852;-68
2022/08/12 06:27:57;;;;;;;;;;;22.60;60.50;;;;;;6246938;23;1266;-68
2022/08/12 06:30:24;;;;;;;;;;;22.60;60.10;;;;;;6247257;23;1101;-68
2022/08/12 06:32:51;;;;;;;;;;;22.60;60.70;;;;;;6220201;23;919;-67
2022/08/12 06:35:16;;;;;;;;;;;22.60;60.40;;;;;;6220404;23;844;-67
2022/08/12 06:37:46;;;;;;;;;;;22.60;60.30;;;;;;6246388;23;1944;-69
2022/08/12 06:40:11;;;;;;;;;;;22.60;60.10;;;;;;6246952;23;820;-69
2022/08/12 06:42:53;;;;;;;;;;;22.60;59.70;;;;;;6247000;23;837;-69
2022/08/12 06:45:18;;;;;;;;;;;22.60;59.70;;;;;;6246895;23;836;-68
2022/08/12 06:47:44;;;;;;;;;;;22.60;60.20;;;;;;6246310;23;1290;-69
2022/08/12 06:50:14;;;;;;;;;;;22.60;60.10;;;;;;6220097;23;796;-68
2022/08/12 06:52:40;;;;;;;;;;;22.60;60.20;;;;;;6246605;23;875;-69
2022/08/12 06:55:06;;;;;;;;;;;22.60;60.10;;;;;;6245817;23;836;-69
2022/08/12 06:57:31;;;;;;;;;;;22.60;59.90;;;;;;6246316;23;1924;-69
2022/08/12 06:59:57;;;;;;;;;;;22.60;59.40;;;;;;6246182;23;872;-69
2022/08/12 07:02:24;;;;;;;;;;;22.60;59.60;;;;;;6246894;23;867;-70
2022/08/12 07:04:51;;;;;;;;;;;22.60;59.70;;;;;;6245979;23;859;-69
2022/08/12 07:07:17;;;;;;;;;;;22.60;59.50;;;;;;6246084;23;1266;-69
2022/08/12 07:09:42;;;;;;;;;;;22.60;59.30;;;;;;6246558;23;768;-68
2022/08/12 07:12:18;;;;;;;;;;;22.70;59.40;;;;;;6246569;23;741;-68
2022/08/12 07:14:50;;;;;;;;;;;22.70;59.50;;;;;;6246210;23;840;-68
2022/08/12 07:17:15;;;;;;;;;;;22.70;59.00;;;;;;6245861;23;1947;-67
2022/08/12 07:19:42;;;;;;;;;;;22.70;59.40;;;;;;6246437;23;954;-68
2022/08/12 07:22:12;;;;;;;;;;;22.70;59.50;;;;;;6244233;23;777;-66
2022/08/12 07:24:38;;;;;;;;;;;22.70;59.40;;;;;;6244157;23;828;-66
2022/08/12 07:27:03;;;;;;;;;;;22.70;59.20;;;;;;6216772;23;1034;-68
2022/08/12 07:29:29;;;;;;;;;;;22.70;59.20;;;;;;6243662;23;1322;-69
2022/08/12 07:31:58;;;;;;;;;;;22.70;58.70;;;;;;6244196;23;817;-68
2022/08/12 07:34:23;;;;;;;;;;;22.70;58.50;;;;;;6243900;23;812;-67
2022/08/12 07:36:49;;;;;;;;;;;22.70;58.20;;;;;;6218544;23;1926;-67
2022/08/12 07:39:14;;;;;;;;;;;22.70;57.50;;;;;;6246188;23;1283;-70
2022/08/12 07:41:40;;;;;;;;;;;22.80;57.80;;;;;;6246050;23;914;-71
2022/08/12 07:44:06;;;;;;;;;;;22.70;57.70;;;;;;6246566;23;918;-68
2022/08/12 07:46:35;;;;;;;;;;;22.70;57.80;;;;;;6218939;23;812;-68
2022/08/12 07:49:04;;;;;;;;;;;22.70;57.80;;;;;;6245910;23;1266;-68
2022/08/12 07:51:30;;;;;;;;;;;22.80;57.20;;;;;;6245944;23;1033;-69
2022/08/12 07:53:56;;;;;;;;;;;22.80;56.40;;;;;;6219521;23;942;-69
2022/08/12 07:56:21;;;;;;;;;;;22.80;55.90;;;;;;6245679;23;1888;-68
2022/08/12 07:58:47;;;;;;;;;;;22.80;56.10;;;;;;6245954;23;1270;-68
2022/08/12 08:01:14;;;;;;;;;;;22.80;56.10;;;;;;6245961;23;812;-69
2022/08/12 08:04:54;;;;;;;;;;;22.80;56.60;;;;;;6246287;23;820;-68
2022/08/12 08:06:26;;;;;;;;;;;22.80;56.20;;;;;;6245295;23;1743;-68
2022/08/12 08:08:55;;;;;;;;;;;22.80;55.60;;;;;;6218624;23;1192;-68
2022/08/12 08:14:07;;;;;;;;;;;22.80;55.30;;;;;;6245779;23;583;-69
2022/08/12 08:16:33;;;;;;;;;;;22.90;55.50;;;;;;6245318;23;1897;-69
2022/08/12 08:18:58;;;;;;;;;;;22.90;55.40;;;;;;6245641;23;1195;-71
2022/08/12 08:21:26;;;;;;;;;;;22.90;55.10;;;;;;6245639;23;887;-70
2022/08/12 08:26:36;;;;;;;;;;;22.90;54.80;;;;;;6245524;23;623;-70
2022/08/12 08:29:01;;;;;;;;;;;22.90;54.90;;;;;;6246014;23;1321;-68
2022/08/12 08:31:27;;;;;;;;;;;22.90;55.20;;;;;;6245715;23;1045;-68
2022/08/12 08:33:53;;;;;;;;;;;22.90;54.20;;;;;;6246085;23;848;-68
2022/08/12 08:36:20;;;;;;;;;;;22.90;54.40;;;;;;6245277;23;804;-68
2022/08/12 08:38:45;;;;;;;;;;;22.80;54.40;;;;;;6245961;23;1896;-68
2022/08/12 08:43:58;;;;;;;;;;;22.90;53.70;;;;;;6245992;23;603;-67
2022/08/12 08:46:24;;;;;;;;;;;22.90;53.40;;;;;;6219181;23;883;-68
2022/08/12 08:48:50;;;;;;;;;;;22.90;53.20;;;;;;6245660;23;1155;-68
2022/08/12 08:51:15;;;;;;;;;;;22.90;53.00;;;;;;6245565;23;725;-68
2022/08/12 08:53:42;;;;;;;;;;;22.90;52.60;;;;;;6219125;23;781;-70
2022/08/12 08:56:09;;;;;;;;;;;22.90;52.70;;;;;;6245500;23;805;-68
2022/08/12 08:58:37;;;;;;;;;;;22.90;53.20;;;;;;6245562;23;1936;-67
2022/08/12 09:01:03;;;;;;;;;;;22.90;53.20;;;;;;6245260;23;793;-67
2022/08/12 09:03:29;;;;;;;;;;;22.90;53.50;;;;;;6219005;23;1457;-67
2022/08/12 09:05:55;;;;;;;;;;;22.90;53.10;;;;;;6245319;23;792;-67
2022/08/12 09:08:21;;;;;;;;;;;22.90;52.60;;;;;;6245408;23;1278;-68
2022/08/12 09:10:47;;;;;;;;;;;22.90;52.40;;;;;;6245542;23;809;-68
2022/08/12 09:13:31;;;;;;;;;;;22.90;52.90;;;;;;6245577;23;824;-67
2022/08/12 09:15:57;;;;;;;;;;;22.90;52.30;;;;;;6222303;23;821;-67
2022/08/12 09:18:23;;;;;;;;;;;22.90;52.40;;;;;;6245266;23;1896;-68
2022/08/12 09:20:49;;;;;;;;;;;22.90;51.50;;;;;;6218902;23;864;-68
2022/08/12 09:23:15;;;;;;;;;;;22.90;51.90;;;;;;6218763;23;852;-68
2022/08/12 09:25:40;;;;;;;;;;;22.90;52.00;;;;;;6218675;23;1029;-68
2022/08/12 09:28:08;;;;;;;;;;;23.00;52.00;;;;;;6218290;23;1272;-66
2022/08/12 09:30:34;;;;;;;;;;;23.00;51.90;;;;;;6219251;23;848;-67
2022/08/12 09:33:00;;;;;;;;;;;23.00;52.00;;;;;;6245474;23;819;-67
2022/08/12 09:35:26;;;;;;;;;;;23.00;51.60;;;;;;6245458;23;891;-68
2022/08/12 09:37:54;;;;;;;;;;;23.00;51.40;;;;;;6217816;23;1893;-67
2022/08/12 09:40:20;;;;;;;;;;;23.00;51.60;;;;;;6189022;23;3530;-66
2022/08/12 09:45:31;;;;;;;;;;;23.00;51.40;;;;;;6185444;23;575;-65
2022/08/12 09:47:58;;;;;;;;;;;23.00;50.80;;;;;;6185163;23;862;-65
2022/08/12 09:50:23;;;;;;;;;;;23.00;50.90;;;;;;6183771;23;1192;-65
2022/08/12 09:53:02;;;;;;;;;;;23.00;51.00;;;;;;6183465;23;1110;-65
2022/08/12 09:55:27;;;;;;;;;;;23.00;50.70;;;;;;6183629;23;926;-65
2022/08/12 09:57:53;;;;;;;;;;;23.00;50.40;;;;;;6184792;23;1886;-66
2022/08/12 10:00:18;;;;;;;;;;;23.00;50.60;;;;;;6184894;23;1181;-66
2022/08/12 10:02:57;;;;;;;;;;;23.00;50.70;;;;;;6185002;23;819;-65
2022/08/12 10:05:22;;;;;;;;;;;23.00;50.60;;;;;;6183546;23;1158;-65
2022/08/12 10:07:48;;;;;;;;;;;23.00;50.70;;;;;;6185106;23;756;-66
2022/08/12 10:10:13;;;;;;;;;;;23.00;50.40;;;;;;6184998;23;1224;-65
2022/08/12 10:15:22;;;;;;;;;;;23.00;50.50;;;;;;6185220;23;612;-65
2022/08/12 10:17:49;;;;;;;;;;;23.10;49.20;;;;;;6184595;23;1885;-65
2022/08/12 10:20:14;;;;;;;;;;;23.10;49.10;;;;;;6184721;23;1275;-65
2022/08/12 10:22:40;;;;;;;;;;;23.10;48.80;;;;;;6184960;23;1025;-65
2022/08/12 10:30:33;;;;;;;;;;;23.10;50.00;;;;;;6186424;23;1342;-65
2022/08/12 10:32:59;;;;;;;;;;;23.20;49.70;;;;;;6185083;23;1046;-64
2022/08/12 10:35:30;;;;;;;;;;;23.20;49.40;;;;;;6185246;23;791;-65
2022/08/12 10:37:56;;;;;;;;;;;23.20;47.30;;;;;;6185458;23;1928;-65
2022/08/12 10:40:22;;;;;;;;;;;23.20;48.40;;;;;;6185096;23;1251;-64
2022/08/12 10:45:32;;;;;;;;;;;23.20;48.60;;;;;;6186541;23;547;-65
2022/08/12 10:47:57;;;;;;;;;;;23.30;48.80;;;;;;6185114;23;872;-65
2022/08/12 10:50:26;;;;;;;;;;;23.20;48.90;;;;;;6186495;23;1276;-65
2022/08/12 10:52:51;;;;;;;;;;;23.30;49.10;;;;;;6186519;23;855;-65
2022/08/12 10:55:18;;;;;;;;;;;23.20;49.10;;;;;;6185172;23;812;-65
2022/08/12 10:57:44;;;;;;;;;;;23.20;48.70;;;;;;6186143;23;1932;-65
2022/08/12 11:00:09;;;;;;;;;;;23.20;48.50;;;;;;6186528;23;1231;-65
2022/08/12 11:02:35;;;;;;;;;;;23.20;48.70;;;;;;6186577;23;758;-64
2022/08/12 11:05:00;;;;;;;;;;;23.20;48.80;;;;;;6186894;23;788;-65
2022/08/12 11:07:26;;;;;;;;;;;23.20;49.00;;;;;;6186058;23;872;-65
2022/08/12 11:09:52;;;;;;;;;;;23.20;48.80;;;;;;6186181;23;1263;-65
2022/08/12 11:12:17;;;;;;;;;;;23.20;48.80;;;;;;6184683;23;820;-65
2022/08/12 11:14:43;;;;;;;;;;;23.20;48.90;;;;;;6184869;23;821;-65
2022/08/12 11:17:11;;;;;;;;;;;23.20;48.60;;;;;;6185888;23;1922;-65
2022/08/12 11:19:38;;;;;;;;;;;23.20;48.70;;;;;;6186200;23;1180;-65
2022/08/12 11:22:03;;;;;;;;;;;23.20;48.70;;;;;;6185086;23;756;-65
2022/08/12 11:24:29;;;;;;;;;;;23.20;48.80;;;;;;6186078;23;890;-65
2022/08/12 11:26:54;;;;;;;;;;;23.20;48.80;;;;;;6185654;23;923;-65
2022/08/12 11:29:24;;;;;;;;;;;23.20;48.80;;;;;;6186151;23;1164;-65
2022/08/12 11:31:49;;;;;;;;;;;23.20;48.80;;;;;;6184614;23;939;-65
2022/08/12 11:34:18;;;;;;;;;;;23.20;48.50;;;;;;6186192;23;973;-65
2022/08/12 11:36:50;;;;;;;;;;;23.20;48.40;;;;;;6185456;23;1928;-65
2022/08/12 11:39:16;;;;;;;;;;;23.20;48.60;;;;;;6184158;23;1212;-65
2022/08/12 11:41:41;;;;;;;;;;;23.20;48.80;;;;;;6184685;23;879;-65
2022/08/12 11:44:07;;;;;;;;;;;23.20;49.00;;;;;;6185897;23;832;-66
2022/08/12 11:46:36;;;;;;;;;;;23.20;49.40;;;;;;6185601;23;872;-65
2022/08/12 11:49:01;;;;;;;;;;;23.20;49.00;;;;;;6185846;23;1196;-65
2022/08/12 11:51:27;;;;;;;;;;;23.20;49.30;;;;;;6185946;23;970;-65
2022/08/12 11:53:52;;;;;;;;;;;23.20;49.00;;;;;;6185635;23;829;-66
2022/08/12 11:56:17;;;;;;;;;;;23.20;48.90;;;;;;6185476;23;821;-63
2022/08/12 11:58:43;;;;;;;;;;;23.20;49.00;;;;;;6185545;23;1936;-65
2022/08/12 12:01:08;;;;;;;;;;;23.20;48.80;;;;;;6184244;23;1305;-65
2022/08/12 12:03:34;;;;;;;;;;;23.30;48.60;;;;;;6185866;23;931;-65
2022/08/12 12:05:59;;;;;;;;;;;23.30;48.80;;;;;;6185572;23;1064;-65
2022/08/12 12:08:25;;;;;;;;;;;23.30;48.70;;;;;;6185245;23;1267;-66
2022/08/12 12:10:51;;;;;;;;;;;23.30;48.30;;;;;;6184397;23;828;-66
2022/08/12 12:13:16;;;;;;;;;;;23.30;48.80;;;;;;6184206;23;1258;-64
2022/08/12 12:15:42;;;;;;;;;;;23.30;48.90;;;;;;6185350;23;800;-64
2022/08/12 12:18:22;;;;;;;;;;;23.30;48.70;;;;;;6185478;23;1885;-65
2022/08/12 12:20:48;;;;;;;;;;;23.30;47.90;;;;;;6185623;23;785;-64
2022/08/12 12:23:13;;;;;;;;;;;23.30;48.00;;;;;;6181477;23;844;-64
2022/08/12 12:25:39;;;;;;;;;;;23.40;48.10;;;;;;6184632;23;872;-64
2022/08/12 12:28:04;;;;;;;;;;;23.40;48.10;;;;;;6185243;23;879;-64
2022/08/12 12:30:30;;;;;;;;;;;23.40;48.50;;;;;;6184726;23;1157;-65
2022/08/12 12:32:55;;;;;;;;;;;23.40;48.40;;;;;;6184815;23;963;-64
2022/08/12 12:35:21;;;;;;;;;;;23.40;48.30;;;;;;6182355;23;1042;-63
2022/08/12 12:37:53;;;;;;;;;;;23.40;48.20;;;;;;6184646;23;1915;-64
2022/08/12 12:40:18;;;;;;;;;;;23.40;48.20;;;;;;6183492;23;1252;-63
2022/08/12 12:42:44;;;;;;;;;;;23.40;48.30;;;;;;6183669;23;796;-63
2022/08/12 12:45:09;;;;;;;;;;;23.40;48.20;;;;;;6185069;23;785;-64
2022/08/12 12:47:35;;;;;;;;;;;23.40;47.80;;;;;;6185184;23;860;-64
2022/08/12 12:50:00;;;;;;;;;;;23.50;48.00;;;;;;6182770;23;1212;-65
2022/08/12 12:52:26;;;;;;;;;;;23.50;47.80;;;;;;6184980;23;1006;-64
2022/08/12 12:54:57;;;;;;;;;;;23.50;48.00;;;;;;6184899;23;994;-64
2022/08/12 12:57:23;;;;;;;;;;;23.50;48.30;;;;;;6184729;23;1869;-63
2022/08/12 13:00:13;;;;;;;;;;;23.50;48.30;;;;;;6183277;23;1228;-63
2022/08/12 13:02:39;;;;;;;;;;;23.50;48.10;;;;;;6184159;23;1132;-63
2022/08/12 13:05:05;;;;;;;;;;;23.50;47.60;;;;;;6183702;23;876;-62
2022/08/12 13:07:30;;;;;;;;;;;23.50;47.90;;;;;;6183182;23;1002;-63
2022/08/12 13:09:56;;;;;;;;;;;23.50;48.00;;;;;;6185161;23;1180;-63
2022/08/12 13:12:21;;;;;;;;;;;23.40;47.70;;;;;;6185081;23;955;-63
2022/08/12 13:14:47;;;;;;;;;;;23.50;46.70;;;;;;6185100;23;836;-62
2022/08/12 13:17:15;;;;;;;;;;;23.50;46.80;;;;;;6184379;23;1889;-62
2022/08/12 13:19:40;;;;;;;;;;;23.50;47.10;;;;;;6185178;23;1176;-64
2022/08/12 13:22:16;;;;;;;;;;;23.50;47.40;;;;;;6185563;23;931;-63
2022/08/12 13:24:42;;;;;;;;;;;23.50;47.90;;;;;;6185185;23;831;-63
2022/08/12 13:27:07;;;;;;;;;;;23.50;48.10;;;;;;6184787;23;1171;-62
2022/08/12 13:29:35;;;;;;;;;;;23.50;48.10;;;;;;6183271;23;1291;-63
2022/08/12 13:32:01;;;;;;;;;;;23.50;48.10;;;;;;6184690;23;911;-65
2022/08/12 13:34:27;;;;;;;;;;;23.50;48.10;;;;;;6185229;23;813;-65
2022/08/12 13:36:52;;;;;;;;;;;23.50;48.20;;;;;;6183318;23;1919;-65
2022/08/12 13:39:20;;;;;;;;;;;23.50;48.50;;;;;;6196305;23;1271;-64
2022/08/12 13:41:46;;;;;;;;;;;23.50;49.00;;;;;;6213627;23;815;-65
2022/08/12 13:44:11;;;;;;;;;;;23.50;48.80;;;;;;6213291;23;804;-65
2022/08/12 13:46:39;;;;;;;;;;;23.50;48.00;;;;;;6214565;23;847;-64
2022/08/12 13:49:06;;;;;;;;;;;23.50;48.20;;;;;;6213437;23;1306;-63
2022/08/12 13:51:32;;;;;;;;;;;23.50;48.30;;;;;;6215113;23;824;-64
2022/08/12 13:53:57;;;;;;;;;;;23.50;48.30;;;;;;6213819;23;1591;-63
2022/08/12 13:56:25;;;;;;;;;;;23.50;48.30;;;;;;6214839;23;792;-64
2022/08/12 13:58:51;;;;;;;;;;;23.50;48.40;;;;;;6214495;23;1921;-64
2022/08/12 14:01:19;;;;;;;;;;;23.50;48.40;;;;;;6214663;23;982;-65
2022/08/12 14:03:45;;;;;;;;;;;23.40;48.00;;;;;;6215371;23;784;-65
2022/08/12 14:06:13;;;;;;;;;;;23.40;48.30;;;;;;6215219;23;931;-65
2022/08/12 14:08:39;;;;;;;;;;;23.40;48.30;;;;;;6215262;23;1282;-65
2022/08/12 14:11:04;;;;;;;;;;;23.40;48.30;;;;;;6216866;23;792;-64
2022/08/12 14:13:30;;;;;;;;;;;23.40;48.40;;;;;;6189933;23;876;-65
2022/08/12 14:15:56;;;;;;;;;;;23.40;48.60;;;;;;6216462;23;915;-65
2022/08/12 14:18:23;;;;;;;;;;;23.40;48.60;;;;;;6216515;23;1933;-64
2022/08/12 14:20:49;;;;;;;;;;;23.40;48.60;;;;;;6215758;23;760;-65
2022/08/12 14:23:15;;;;;;;;;;;23.40;48.50;;;;;;6215121;23;804;-63
2022/08/12 14:25:42;;;;;;;;;;;23.40;48.70;;;;;;6215406;23;912;-63
2022/08/12 14:28:17;;;;;;;;;;;23.40;48.80;;;;;;6216350;23;839;-62
2022/08/12 14:30:52;;;;;;;;;;;23.40;48.50;;;;;;6216683;23;986;-63
2022/08/12 14:33:24;;;;;;;;;;;23.40;48.40;;;;;;6216756;23;870;-63
2022/08/12 14:35:50;;;;;;;;;;;23.40;48.30;;;;;;6215746;23;1030;-63
2022/08/12 14:38:21;;;;;;;;;;;23.50;48.60;;;;;;6216416;23;1932;-63
2022/08/12 14:40:51;;;;;;;;;;;23.40;48.60;;;;;;6216601;23;927;-63
2022/08/12 14:43:19;;;;;;;;;;;23.40;48.60;;;;;;6216402;23;1029;-64
2022/08/12 14:45:47;;;;;;;;;;;23.40;48.50;;;;;;6189458;23;1294;-64
2022/08/12 14:48:13;;;;;;;;;;;23.40;48.80;;;;;;6216584;23;872;-64
2022/08/12 14:50:39;;;;;;;;;;;23.50;48.50;;;;;;6214786;23;1220;-65
2022/08/12 14:53:09;;;;;;;;;;;23.40;48.30;;;;;;6216107;23;813;-65
2022/08/12 14:55:37;;;;;;;;;;;23.40;48.50;;;;;;6216301;23;860;-64
2022/08/12 14:58:02;;;;;;;;;;;23.40;48.30;;;;;;6216326;23;1935;-64
2022/08/12 15:03:13;;;;;;;;;;;23.40;48.00;;;;;;6216710;23;630;-63
2022/08/12 15:05:39;;;;;;;;;;;23.40;48.10;;;;;;6216051;23;863;-65
2022/08/12 15:08:10;;;;;;;;;;;23.40;48.10;;;;;;6214800;23;991;-64
2022/08/12 15:10:39;;;;;;;;;;;23.50;48.20;;;;;;6216201;23;1685;-64
2022/08/12 15:13:05;;;;;;;;;;;23.40;48.40;;;;;;6215726;23;849;-64
2022/08/12 15:15:31;;;;;;;;;;;23.40;48.50;;;;;;6215377;23;784;-64
2022/08/12 15:18:00;;;;;;;;;;;23.40;48.80;;;;;;6214942;23;1881;-63
2022/08/12 15:20:26;;;;;;;;;;;23.40;48.20;;;;;;6214297;23;1200;-64
2022/08/12 15:22:51;;;;;;;;;;;23.40;48.00;;;;;;6214772;23;1296;-64
2022/08/12 15:25:16;;;;;;;;;;;23.40;47.80;;;;;;6214455;23;951;-64
2022/08/12 15:27:44;;;;;;;;;;;23.40;48.20;;;;;;6215489;23;803;-64
2022/08/12 15:30:10;;;;;;;;;;;23.40;48.30;;;;;;6215857;23;1152;-64
2022/08/12 15:32:36;;;;;;;;;;;23.40;48.40;;;;;;6215609;23;804;-63
2022/08/12 15:35:01;;;;;;;;;;;23.40;48.50;;;;;;6212701;23;883;-64
2022/08/12 15:37:27;;;;;;;;;;;23.40;48.10;;;;;;6213967;23;1884;-64
2022/08/12 15:39:52;;;;;;;;;;;23.40;48.10;;;;;;6202759;23;1980;-67
2022/08/12 15:42:18;;;;;;;;;;;23.40;48.10;;;;;;6184617;23;1051;-68
2022/08/12 15:45:02;;;;;;;;;;;23.40;48.20;;;;;;6184782;23;834;-68
2022/08/12 15:47:28;;;;;;;;;;;23.40;48.20;;;;;;6180701;23;1382;-68
2022/08/12 15:49:54;;;;;;;;;;;23.40;48.60;;;;;;6183486;23;1622;-68
2022/08/12 15:52:22;;;;;;;;;;;23.40;48.90;;;;;;6184404;23;811;-68
2022/08/12 15:54:50;;;;;;;;;;;23.40;49.00;;;;;;6185732;23;950;-68
2022/08/12 15:57:23;;;;;;;;;;;23.40;49.30;;;;;;6183475;23;1937;-67
2022/08/12 15:59:48;;;;;;;;;;;23.40;48.90;;;;;;6184831;23;1317;-66
2022/08/12 16:02:14;;;;;;;;;;;23.40;48.90;;;;;;6185561;23;705;-67
2022/08/12 16:04:40;;;;;;;;;;;23.40;48.90;;;;;;6185618;23;792;-68
2022/08/12 16:07:05;;;;;;;;;;;23.40;49.00;;;;;;6183862;23;722;-68
2022/08/12 16:09:31;;;;;;;;;;;23.40;48.80;;;;;;6185531;23;1193;-64
2022/08/12 16:11:57;;;;;;;;;;;23.40;48.60;;;;;;6183859;23;824;-67
2022/08/12 16:14:38;;;;;;;;;;;23.40;48.60;;;;;;6185152;23;780;-67
2022/08/12 16:17:04;;;;;;;;;;;23.40;48.80;;;;;;6159040;23;1881;-68
2022/08/12 16:19:32;;;;;;;;;;;23.40;48.40;;;;;;6183958;23;1287;-65
2022/08/12 16:21:57;;;;;;;;;;;23.40;48.40;;;;;;6185555;23;803;-65